sensor_id;sensor_type;location;lat;lon;timestamp;temperature;humidity
53653;DHT22;39553;52.954;5.932;2023-06-26T00:02:14;24.00;46.10
53653;DHT22;39553;52.954;5.932;2023-06-26T00:04:42;24.00;46.20
53653;DHT22;39553;52.954;5.932;2023-06-26T00:07:08;23.90;46.30
53653;DHT22;39553;52.954;5.932;2023-06-26T00:09:34;23.90;46.70
53653;DHT22;39553;52.954;5.932;2023-06-26T00:12:00;23.90;46.80
53653;DHT22;39553;52.954;5.932;2023-06-26T00:14:26;23.90;47.00
53653;DHT22;39553;52.954;5.932;2023-06-26T00:16:52;23.80;47.10
53653;DHT22;39553;52.954;5.932;2023-06-26T00:19:18;23.80;47.20
53653;DHT22;39553;52.954;5.932;2023-06-26T00:21:44;23.80;47.40
53653;DHT22;39553;52.954;5.932;2023-06-26T00:24:14;23.70;47.50
53653;DHT22;39553;52.954;5.932;2023-06-26T00:26:40;23.70;47.70
53653;DHT22;39553;52.954;5.932;2023-06-26T00:29:06;23.70;48.10
53653;DHT22;39553;52.954;5.932;2023-06-26T00:31:31;23.60;48.20
53653;DHT22;39553;52.954;5.932;2023-06-26T00:33:57;23.60;48.40
53653;DHT22;39553;52.954;5.932;2023-06-26T00:36:23;23.60;48.80
53653;DHT22;39553;52.954;5.932;2023-06-26T00:38:49;23.50;48.90
53653;DHT22;39553;52.954;5.932;2023-06-26T00:41:15;23.50;49.10
53653;DHT22;39553;52.954;5.932;2023-06-26T00:43:41;23.50;49.40
53653;DHT22;39553;52.954;5.932;2023-06-26T00:46:09;23.40;49.70
53653;DHT22;39553;52.954;5.932;2023-06-26T00:48:37;23.40;50.10
53653;DHT22;39553;52.954;5.932;2023-06-26T00:51:03;23.40;50.20
53653;DHT22;39553;52.954;5.932;2023-06-26T00:53:30;23.40;50.40
53653;DHT22;39553;52.954;5.932;2023-06-26T00:55:55;23.40;50.60
53653;DHT22;39553;52.954;5.932;2023-06-26T00:58:24;23.30;50.80
53653;DHT22;39553;52.954;5.932;2023-06-26T01:00:51;23.30;51.00
53653;DHT22;39553;52.954;5.932;2023-06-26T01:03:17;23.30;51.80
53653;DHT22;39553;52.954;5.932;2023-06-26T01:05:43;23.30;51.20
53653;DHT22;39553;52.954;5.932;2023-06-26T01:08:14;23.20;51.80
53653;DHT22;39553;52.954;5.932;2023-06-26T01:10:40;23.10;52.30
53653;DHT22;39553;52.954;5.932;2023-06-26T01:13:06;23.10;52.40
53653;DHT22;39553;52.954;5.932;2023-06-26T01:15:32;23.10;52.70
53653;DHT22;39553;52.954;5.932;2023-06-26T01:17:58;23.00;53.00
53653;DHT22;39553;52.954;5.932;2023-06-26T01:20:26;23.00;53.30
53653;DHT22;39553;52.954;5.932;2023-06-26T01:23:13;23.00;53.60
53653;DHT22;39553;52.954;5.932;2023-06-26T01:28:41;22.90;54.50
53653;DHT22;39553;52.954;5.932;2023-06-26T01:31:07;22.90;54.60
53653;DHT22;39553;52.954;5.932;2023-06-26T01:33:34;22.90;54.60
53653;DHT22;39553;52.954;5.932;2023-06-26T01:36:01;22.80;54.90
53653;DHT22;39553;52.954;5.932;2023-06-26T01:38:27;22.80;55.90
53653;DHT22;39553;52.954;5.932;2023-06-26T01:40:53;22.80;55.40
53653;DHT22;39553;52.954;5.932;2023-06-26T01:46:06;22.70;56.60
53653;DHT22;39553;52.954;5.932;2023-06-26T01:48:46;22.70;57.20
53653;DHT22;39553;52.954;5.932;2023-06-26T01:51:14;22.60;57.80
53653;DHT22;39553;52.954;5.932;2023-06-26T01:53:46;22.60;57.90
53653;DHT22;39553;52.954;5.932;2023-06-26T01:56:18;22.60;58.40
53653;DHT22;39553;52.954;5.932;2023-06-26T01:58:46;22.50;58.60
53653;DHT22;39553;52.954;5.932;2023-06-26T02:01:15;22.50;59.20
53653;DHT22;39553;52.954;5.932;2023-06-26T02:03:42;22.40;59.70
53653;DHT22;39553;52.954;5.932;2023-06-26T02:06:07;22.40;60.10
53653;DHT22;39553;52.954;5.932;2023-06-26T02:08:33;22.40;60.70
53653;DHT22;39553;52.954;5.932;2023-06-26T02:10:59;22.30;61.50
53653;DHT22;39553;52.954;5.932;2023-06-26T02:13:25;22.30;62.20
53653;DHT22;39553;52.954;5.932;2023-06-26T02:15:50;22.30;62.80
53653;DHT22;39553;52.954;5.932;2023-06-26T02:18:16;22.30;62.70
53653;DHT22;39553;52.954;5.932;2023-06-26T02:20:43;22.30;62.90
53653;DHT22;39553;52.954;5.932;2023-06-26T02:23:09;22.30;63.20
53653;DHT22;39553;52.954;5.932;2023-06-26T02:25:35;22.30;63.40
53653;DHT22;39553;52.954;5.932;2023-06-26T02:28:01;22.30;63.90
53653;DHT22;39553;52.954;5.932;2023-06-26T02:30:26;22.30;64.40
53653;DHT22;39553;52.954;5.932;2023-06-26T02:32:52;22.20;64.70
53653;DHT22;39553;52.954;5.932;2023-06-26T02:35:18;22.20;65.30
53653;DHT22;39553;52.954;5.932;2023-06-26T02:37:44;22.10;65.90
53653;DHT22;39553;52.954;5.932;2023-06-26T02:40:10;22.10;66.70
53653;DHT22;39553;52.954;5.932;2023-06-26T02:42:36;22.10;67.40
53653;DHT22;39553;52.954;5.932;2023-06-26T02:45:01;22.10;67.40
53653;DHT22;39553;52.954;5.932;2023-06-26T02:47:27;22.20;66.90
53653;DHT22;39553;52.954;5.932;2023-06-26T02:49:53;22.20;66.30
53653;DHT22;39553;52.954;5.932;2023-06-26T02:52:19;22.20;65.90
53653;DHT22;39553;52.954;5.932;2023-06-26T02:54:45;22.20;65.60
53653;DHT22;39553;52.954;5.932;2023-06-26T02:57:11;22.20;65.30
53653;DHT22;39553;52.954;5.932;2023-06-26T02:59:39;22.20;65.20
53653;DHT22;39553;52.954;5.932;2023-06-26T03:02:05;22.20;65.10
53653;DHT22;39553;52.954;5.932;2023-06-26T03:04:30;22.20;65.10
53653;DHT22;39553;52.954;5.932;2023-06-26T03:06:56;22.10;65.20
53653;DHT22;39553;52.954;5.932;2023-06-26T03:09:22;22.40;65.50
53653;DHT22;39553;52.954;5.932;2023-06-26T03:11:48;22.10;65.60
53653;DHT22;39553;52.954;5.932;2023-06-26T03:14:14;22.10;66.10
53653;DHT22;39553;52.954;5.932;2023-06-26T03:16:40;22.00;66.60
53653;DHT22;39553;52.954;5.932;2023-06-26T03:19:06;22.00;67.40
53653;DHT22;39553;52.954;5.932;2023-06-26T03:21:32;21.90;67.80
53653;DHT22;39553;52.954;5.932;2023-06-26T03:23:58;21.90;68.60
53653;DHT22;39553;52.954;5.932;2023-06-26T03:26:24;21.90;69.00
53653;DHT22;39553;52.954;5.932;2023-06-26T03:28:53;21.80;69.80
53653;DHT22;39553;52.954;5.932;2023-06-26T03:31:20;21.80;70.50
53653;DHT22;39553;52.954;5.932;2023-06-26T03:33:46;21.70;72.10
53653;DHT22;39553;52.954;5.932;2023-06-26T03:36:12;21.70;72.70
53653;DHT22;39553;52.954;5.932;2023-06-26T03:38:38;21.70;74.40
53653;DHT22;39553;52.954;5.932;2023-06-26T03:41:04;21.60;75.60
53653;DHT22;39553;52.954;5.932;2023-06-26T03:43:30;21.60;77.40
53653;DHT22;39553;52.954;5.932;2023-06-26T03:45:55;21.50;78.40
53653;DHT22;39553;52.954;5.932;2023-06-26T03:48:21;21.40;80.30
53653;DHT22;39553;52.954;5.932;2023-06-26T03:50:47;21.40;81.50
53653;DHT22;39553;52.954;5.932;2023-06-26T03:53:13;21.40;82.80
53653;DHT22;39553;52.954;5.932;2023-06-26T03:55:38;21.30;83.50
53653;DHT22;39553;52.954;5.932;2023-06-26T03:58:04;21.30;84.40
53653;DHT22;39553;52.954;5.932;2023-06-26T04:00:30;21.20;85.40
53653;DHT22;39553;52.954;5.932;2023-06-26T04:02:56;21.20;85.60
53653;DHT22;39553;52.954;5.932;2023-06-26T04:05:23;21.10;85.70
53653;DHT22;39553;52.954;5.932;2023-06-26T04:07:52;21.10;85.70
53653;DHT22;39553;52.954;5.932;2023-06-26T04:10:18;21.00;85.90
53653;DHT22;39553;52.954;5.932;2023-06-26T04:12:46;21.00;86.00
53653;DHT22;39553;52.954;5.932;2023-06-26T04:15:12;21.00;86.20
53653;DHT22;39553;52.954;5.932;2023-06-26T04:17:37;21.00;86.30
53653;DHT22;39553;52.954;5.932;2023-06-26T04:20:04;20.90;87.00
53653;DHT22;39553;52.954;5.932;2023-06-26T04:22:33;20.80;87.30
53653;DHT22;39553;52.954;5.932;2023-06-26T04:25:01;20.90;88.50
53653;DHT22;39553;52.954;5.932;2023-06-26T04:27:28;20.80;88.70
53653;DHT22;39553;52.954;5.932;2023-06-26T04:29:54;20.80;90.30
53653;DHT22;39553;52.954;5.932;2023-06-26T04:32:20;20.90;90.60
53653;DHT22;39553;52.954;5.932;2023-06-26T04:34:45;20.80;91.30
53653;DHT22;39553;52.954;5.932;2023-06-26T04:37:13;20.80;92.40
53653;DHT22;39553;52.954;5.932;2023-06-26T04:39:41;20.80;92.70
53653;DHT22;39553;52.954;5.932;2023-06-26T04:42:07;20.90;93.00
53653;DHT22;39553;52.954;5.932;2023-06-26T04:44:33;20.90;93.30
53653;DHT22;39553;52.954;5.932;2023-06-26T04:46:59;20.80;93.70
53653;DHT22;39553;52.954;5.932;2023-06-26T04:49:25;20.70;94.80
53653;DHT22;39553;52.954;5.932;2023-06-26T04:51:51;20.50;96.30
53653;DHT22;39553;52.954;5.932;2023-06-26T04:54:17;20.40;98.00
53653;DHT22;39553;52.954;5.932;2023-06-26T04:56:42;20.30;99.10
53653;DHT22;39553;52.954;5.932;2023-06-26T04:59:09;20.20;99.80
53653;DHT22;39553;52.954;5.932;2023-06-26T05:01:39;20.20;99.90
53653;DHT22;39553;52.954;5.932;2023-06-26T05:04:05;20.20;99.90
53653;DHT22;39553;52.954;5.932;2023-06-26T05:06:31;20.20;99.50
53653;DHT22;39553;52.954;5.932;2023-06-26T05:08:57;20.20;98.80
53653;DHT22;39553;52.954;5.932;2023-06-26T05:11:23;20.20;97.70
53653;DHT22;39553;52.954;5.932;2023-06-26T05:13:50;20.20;96.80
53653;DHT22;39553;52.954;5.932;2023-06-26T05:16:15;20.20;96.00
53653;DHT22;39553;52.954;5.932;2023-06-26T05:18:41;20.30;96.20
53653;DHT22;39553;52.954;5.932;2023-06-26T05:21:07;20.30;94.80
53653;DHT22;39553;52.954;5.932;2023-06-26T05:23:34;20.30;94.10
53653;DHT22;39553;52.954;5.932;2023-06-26T05:26:03;20.20;92.10
53653;DHT22;39553;52.954;5.932;2023-06-26T05:28:30;20.20;91.30
53653;DHT22;39553;52.954;5.932;2023-06-26T05:30:59;20.10;91.40
53653;DHT22;39553;52.954;5.932;2023-06-26T05:33:27;20.10;91.50
53653;DHT22;39553;52.954;5.932;2023-06-26T05:35:53;20.20;91.00
53653;DHT22;39553;52.954;5.932;2023-06-26T05:38:20;20.20;90.70
53653;DHT22;39553;52.954;5.932;2023-06-26T05:40:46;20.30;90.40
53653;DHT22;39553;52.954;5.932;2023-06-26T05:43:12;20.30;89.20
53653;DHT22;39553;52.954;5.932;2023-06-26T05:45:38;20.40;88.40
53653;DHT22;39553;52.954;5.932;2023-06-26T05:48:04;20.60;88.20
53653;DHT22;39553;52.954;5.932;2023-06-26T05:50:30;20.70;86.20
53653;DHT22;39553;52.954;5.932;2023-06-26T05:52:57;20.80;83.00
53653;DHT22;39553;52.954;5.932;2023-06-26T05:55:23;20.70;80.40
53653;DHT22;39553;52.954;5.932;2023-06-26T05:57:50;20.80;79.00
53653;DHT22;39553;52.954;5.932;2023-06-26T06:00:16;20.80;77.60
53653;DHT22;39553;52.954;5.932;2023-06-26T06:02:43;20.80;78.40
53653;DHT22;39553;52.954;5.932;2023-06-26T06:05:09;20.80;77.10
53653;DHT22;39553;52.954;5.932;2023-06-26T06:07:35;20.90;76.80
53653;DHT22;39553;52.954;5.932;2023-06-26T06:10:02;20.90;75.40
53653;DHT22;39553;52.954;5.932;2023-06-26T06:12:28;21.00;72.90
53653;DHT22;39553;52.954;5.932;2023-06-26T06:14:56;21.00;71.60
53653;DHT22;39553;52.954;5.932;2023-06-26T06:17:22;21.00;71.80
53653;DHT22;39553;52.954;5.932;2023-06-26T06:19:48;21.10;71.60
53653;DHT22;39553;52.954;5.932;2023-06-26T06:22:14;21.10;71.80
53653;DHT22;39553;52.954;5.932;2023-06-26T06:24:39;21.20;71.00
53653;DHT22;39553;52.954;5.932;2023-06-26T06:27:05;21.30;70.40
53653;DHT22;39553;52.954;5.932;2023-06-26T06:29:31;21.30;69.00
53653;DHT22;39553;52.954;5.932;2023-06-26T06:31:57;21.30;68.50
53653;DHT22;39553;52.954;5.932;2023-06-26T06:34:22;21.30;67.70
53653;DHT22;39553;52.954;5.932;2023-06-26T06:36:48;21.30;67.30
53653;DHT22;39553;52.954;5.932;2023-06-26T06:39:15;21.40;66.50
53653;DHT22;39553;52.954;5.932;2023-06-26T06:41:41;21.30;65.20
53653;DHT22;39553;52.954;5.932;2023-06-26T06:44:07;21.30;63.10
53653;DHT22;39553;52.954;5.932;2023-06-26T06:46:33;21.30;61.30
53653;DHT22;39553;52.954;5.932;2023-06-26T06:48:59;21.30;57.60
53653;DHT22;39553;52.954;5.932;2023-06-26T06:51:26;21.40;57.60
53653;DHT22;39553;52.954;5.932;2023-06-26T06:53:52;21.40;58.00
53653;DHT22;39553;52.954;5.932;2023-06-26T06:56:18;21.50;58.30
53653;DHT22;39553;52.954;5.932;2023-06-26T06:58:43;21.60;57.90
53653;DHT22;39553;52.954;5.932;2023-06-26T07:01:12;21.70;55.60
53653;DHT22;39553;52.954;5.932;2023-06-26T07:03:41;21.70;54.20
53653;DHT22;39553;52.954;5.932;2023-06-26T07:06:07;21.60;52.10
53653;DHT22;39553;52.954;5.932;2023-06-26T07:08:33;21.60;52.60
53653;DHT22;39553;52.954;5.932;2023-06-26T07:10:59;21.60;52.80
53653;DHT22;39553;52.954;5.932;2023-06-26T07:13:25;21.50;54.80
53653;DHT22;39553;52.954;5.932;2023-06-26T07:15:51;21.50;56.20
53653;DHT22;39553;52.954;5.932;2023-06-26T07:18:17;21.60;55.40
53653;DHT22;39553;52.954;5.932;2023-06-26T07:20:43;21.60;56.10
53653;DHT22;39553;52.954;5.932;2023-06-26T07:23:09;21.60;57.70
53653;DHT22;39553;52.954;5.932;2023-06-26T07:25:35;21.80;57.30
53653;DHT22;39553;52.954;5.932;2023-06-26T07:28:10;21.90;55.50
53653;DHT22;39553;52.954;5.932;2023-06-26T07:30:36;22.00;56.80
53653;DHT22;39553;52.954;5.932;2023-06-26T07:33:02;22.20;56.90
53653;DHT22;39553;52.954;5.932;2023-06-26T07:35:28;22.10;55.40
53653;DHT22;39553;52.954;5.932;2023-06-26T07:37:54;21.90;56.30
53653;DHT22;39553;52.954;5.932;2023-06-26T07:40:19;21.70;57.40
53653;DHT22;39553;52.954;5.932;2023-06-26T07:42:45;21.70;58.00
53653;DHT22;39553;52.954;5.932;2023-06-26T07:45:12;21.80;57.30
53653;DHT22;39553;52.954;5.932;2023-06-26T07:47:38;22.10;57.20
53653;DHT22;39553;52.954;5.932;2023-06-26T07:50:04;22.30;56.20
53653;DHT22;39553;52.954;5.932;2023-06-26T07:52:30;22.30;55.00
53653;DHT22;39553;52.954;5.932;2023-06-26T07:54:57;22.30;55.00
53653;DHT22;39553;52.954;5.932;2023-06-26T07:57:23;22.40;55.30
53653;DHT22;39553;52.954;5.932;2023-06-26T07:59:50;22.40;54.90
53653;DHT22;39553;52.954;5.932;2023-06-26T08:02:16;22.40;51.80
53653;DHT22;39553;52.954;5.932;2023-06-26T08:04:43;22.30;53.60
53653;DHT22;39553;52.954;5.932;2023-06-26T08:07:09;22.40;53.90
53653;DHT22;39553;52.954;5.932;2023-06-26T08:09:35;22.20;53.90
53653;DHT22;39553;52.954;5.932;2023-06-26T08:12:01;22.00;55.20
53653;DHT22;39553;52.954;5.932;2023-06-26T08:14:27;22.00;56.50
53653;DHT22;39553;52.954;5.932;2023-06-26T08:16:53;22.30;57.00
53653;DHT22;39553;52.954;5.932;2023-06-26T08:19:19;22.60;55.60
53653;DHT22;39553;52.954;5.932;2023-06-26T08:21:45;22.40;53.80
53653;DHT22;39553;52.954;5.932;2023-06-26T08:24:12;22.30;53.50
53653;DHT22;39553;52.954;5.932;2023-06-26T08:26:45;22.00;53.90
53653;DHT22;39553;52.954;5.932;2023-06-26T08:29:12;21.90;53.90
53653;DHT22;39553;52.954;5.932;2023-06-26T08:31:39;21.90;54.00
53653;DHT22;39553;52.954;5.932;2023-06-26T08:34:05;22.10;53.60
53653;DHT22;39553;52.954;5.932;2023-06-26T08:36:31;22.00;52.40
53653;DHT22;39553;52.954;5.932;2023-06-26T08:38:57;22.00;51.80
53653;DHT22;39553;52.954;5.932;2023-06-26T08:41:23;21.90;51.50
53653;DHT22;39553;52.954;5.932;2023-06-26T08:43:49;21.80;52.90
53653;DHT22;39553;52.954;5.932;2023-06-26T08:46:18;21.70;53.60
53653;DHT22;39553;52.954;5.932;2023-06-26T08:49:01;21.80;54.20
53653;DHT22;39553;52.954;5.932;2023-06-26T08:51:28;21.90;52.80
53653;DHT22;39553;52.954;5.932;2023-06-26T08:54:01;21.90;53.20
53653;DHT22;39553;52.954;5.932;2023-06-26T08:56:37;21.80;53.50
53653;DHT22;39553;52.954;5.932;2023-06-26T08:59:05;21.70;53.10
53653;DHT22;39553;52.954;5.932;2023-06-26T09:01:32;21.70;54.30
53653;DHT22;39553;52.954;5.932;2023-06-26T09:03:57;21.80;54.30
53653;DHT22;39553;52.954;5.932;2023-06-26T09:06:23;22.00;54.00
53653;DHT22;39553;52.954;5.932;2023-06-26T09:08:49;22.20;52.80
53653;DHT22;39553;52.954;5.932;2023-06-26T09:11:15;22.50;52.00
53653;DHT22;39553;52.954;5.932;2023-06-26T09:13:41;22.80;51.90
53653;DHT22;39553;52.954;5.932;2023-06-26T09:16:07;23.00;49.90
53653;DHT22;39553;52.954;5.932;2023-06-26T09:18:36;23.00;49.10
53653;DHT22;39553;52.954;5.932;2023-06-26T09:21:09;22.80;48.40
53653;DHT22;39553;52.954;5.932;2023-06-26T09:23:35;22.80;49.70
53653;DHT22;39553;52.954;5.932;2023-06-26T09:26:05;22.90;48.90
53653;DHT22;39553;52.954;5.932;2023-06-26T09:28:35;22.90;48.20
53653;DHT22;39553;52.954;5.932;2023-06-26T09:31:05;22.70;48.80
53653;DHT22;39553;52.954;5.932;2023-06-26T09:33:35;22.70;46.90
53653;DHT22;39553;52.954;5.932;2023-06-26T09:36:07;22.50;47.90
53653;DHT22;39553;52.954;5.932;2023-06-26T09:38:35;22.50;48.50
53653;DHT22;39553;52.954;5.932;2023-06-26T09:41:05;22.40;48.30
53653;DHT22;39553;52.954;5.932;2023-06-26T09:43:31;22.40;48.60
53653;DHT22;39553;52.954;5.932;2023-06-26T09:45:57;22.20;48.40
53653;DHT22;39553;52.954;5.932;2023-06-26T09:48:24;22.20;49.40
53653;DHT22;39553;52.954;5.932;2023-06-26T09:50:49;22.20;49.10
53653;DHT22;39553;52.954;5.932;2023-06-26T09:53:15;22.40;50.00
53653;DHT22;39553;52.954;5.932;2023-06-26T09:55:43;22.40;48.70
53653;DHT22;39553;52.954;5.932;2023-06-26T09:58:10;22.40;49.20
53653;DHT22;39553;52.954;5.932;2023-06-26T10:00:43;22.30;49.40
53653;DHT22;39553;52.954;5.932;2023-06-26T10:03:10;22.30;49.80
53653;DHT22;39553;52.954;5.932;2023-06-26T10:05:38;22.40;49.50
53653;DHT22;39553;52.954;5.932;2023-06-26T10:08:05;22.80;48.10
53653;DHT22;39553;52.954;5.932;2023-06-26T10:10:33;23.20;46.20
53653;DHT22;39553;52.954;5.932;2023-06-26T10:13:08;23.60;44.50
53653;DHT22;39553;52.954;5.932;2023-06-26T10:15:37;23.60;40.60
53653;DHT22;39553;52.954;5.932;2023-06-26T10:18:03;23.50;41.10
53653;DHT22;39553;52.954;5.932;2023-06-26T10:20:29;23.40;40.60
53653;DHT22;39553;52.954;5.932;2023-06-26T10:22:57;23.30;41.00
53653;DHT22;39553;52.954;5.932;2023-06-26T10:25:25;23.50;41.30
53653;DHT22;39553;52.954;5.932;2023-06-26T10:27:55;23.90;38.60
53653;DHT22;39553;52.954;5.932;2023-06-26T10:30:29;23.90;39.60
53653;DHT22;39553;52.954;5.932;2023-06-26T10:32:57;24.10;36.60
53653;DHT22;39553;52.954;5.932;2023-06-26T10:35:25;24.50;34.80
53653;DHT22;39553;52.954;5.932;2023-06-26T10:38:00;25.10;33.60
53653;DHT22;39553;52.954;5.932;2023-06-26T10:40:28;25.30;30.10
53653;DHT22;39553;52.954;5.932;2023-06-26T10:43:07;25.30;28.70
53653;DHT22;39553;52.954;5.932;2023-06-26T10:45:43;25.90;28.70
53653;DHT22;39553;52.954;5.932;2023-06-26T10:48:08;26.20;26.80
53653;DHT22;39553;52.954;5.932;2023-06-26T10:50:34;25.90;27.20
53653;DHT22;39553;52.954;5.932;2023-06-26T10:56:04;25.40;27.20
53653;DHT22;39553;52.954;5.932;2023-06-26T11:01:26;26.00;25.80
53653;DHT22;39553;52.954;5.932;2023-06-26T11:06:23;26.40;23.10
53653;DHT22;39553;52.954;5.932;2023-06-26T11:08:53;26.60;23.30
53653;DHT22;39553;52.954;5.932;2023-06-26T11:11:21;26.90;21.90
53653;DHT22;39553;52.954;5.932;2023-06-26T11:13:47;27.00;20.60
53653;DHT22;39553;52.954;5.932;2023-06-26T11:16:14;26.90;21.50
53653;DHT22;39553;52.954;5.932;2023-06-26T11:18:44;27.10;21.90
53653;DHT22;39553;52.954;5.932;2023-06-26T11:21:12;27.40;21.80
53653;DHT22;39553;52.954;5.932;2023-06-26T11:23:40;27.70;19.40
53653;DHT22;39553;52.954;5.932;2023-06-26T11:26:21;27.60;17.60
53653;DHT22;39553;52.954;5.932;2023-06-26T11:28:54;27.60;16.10
53653;DHT22;39553;52.954;5.932;2023-06-26T11:31:27;27.40;16.80
53653;DHT22;39553;52.954;5.932;2023-06-26T11:33:56;27.40;17.30
53653;DHT22;39553;52.954;5.932;2023-06-26T11:36:24;27.30;18.60
53653;DHT22;39553;52.954;5.932;2023-06-26T11:39:01;26.70;20.00
53653;DHT22;39553;52.954;5.932;2023-06-26T11:41:30;26.50;22.10
53653;DHT22;39553;52.954;5.932;2023-06-26T11:44:00;27.00;21.20
53653;DHT22;39553;52.954;5.932;2023-06-26T11:46:26;27.40;20.00
53653;DHT22;39553;52.954;5.932;2023-06-26T11:48:52;27.50;19.40
53653;DHT22;39553;52.954;5.932;2023-06-26T11:51:17;27.20;19.80
53653;DHT22;39553;52.954;5.932;2023-06-26T11:53:45;27.20;20.30
53653;DHT22;39553;52.954;5.932;2023-06-26T11:56:12;27.40;19.40
53653;DHT22;39553;52.954;5.932;2023-06-26T11:58:58;27.20;19.50
53653;DHT22;39553;52.954;5.932;2023-06-26T12:01:45;26.70;19.80
53653;DHT22;39553;52.954;5.932;2023-06-26T12:04:13;26.40;21.20
53653;DHT22;39553;52.954;5.932;2023-06-26T12:06:50;26.40;21.00
53653;DHT22;39553;52.954;5.932;2023-06-26T12:09:18;26.30;21.30
53653;DHT22;39553;52.954;5.932;2023-06-26T12:11:46;26.00;21.30
53653;DHT22;39553;52.954;5.932;2023-06-26T12:14:14;25.50;23.10
53653;DHT22;39553;52.954;5.932;2023-06-26T12:16:40;24.50;24.80
53653;DHT22;39553;52.954;5.932;2023-06-26T12:19:07;24.00;26.80
53653;DHT22;39553;52.954;5.932;2023-06-26T12:24:00;23.40;27.70
53653;DHT22;39553;52.954;5.932;2023-06-26T12:26:27;22.80;30.20
53653;DHT22;39553;52.954;5.932;2023-06-26T12:29:05;22.60;33.20
53653;DHT22;39553;52.954;5.932;2023-06-26T12:31:31;23.00;31.60
53653;DHT22;39553;52.954;5.932;2023-06-26T12:33:57;23.00;30.30
53653;DHT22;39553;52.954;5.932;2023-06-26T12:36:23;22.80;31.20
53653;DHT22;39553;52.954;5.932;2023-06-26T12:38:49;22.80;31.20
53653;DHT22;39553;52.954;5.932;2023-06-26T12:41:15;22.80;32.10
53653;DHT22;39553;52.954;5.932;2023-06-26T12:43:42;22.80;32.20
53653;DHT22;39553;52.954;5.932;2023-06-26T12:46:08;22.90;31.40
53653;DHT22;39553;52.954;5.932;2023-06-26T12:48:44;22.80;31.70
53653;DHT22;39553;52.954;5.932;2023-06-26T12:51:16;22.60;31.40
53653;DHT22;39553;52.954;5.932;2023-06-26T12:53:43;22.70;32.10
53653;DHT22;39553;52.954;5.932;2023-06-26T12:56:10;22.50;33.50
53653;DHT22;39553;52.954;5.932;2023-06-26T12:58:37;22.70;33.60
53653;DHT22;39553;52.954;5.932;2023-06-26T13:01:04;22.70;33.50
53653;DHT22;39553;52.954;5.932;2023-06-26T13:03:31;22.80;32.90
53653;DHT22;39553;52.954;5.932;2023-06-26T13:05:57;22.70;33.70
53653;DHT22;39553;52.954;5.932;2023-06-26T13:08:23;22.70;33.70
53653;DHT22;39553;52.954;5.932;2023-06-26T13:10:49;22.50;34.30
53653;DHT22;39553;52.954;5.932;2023-06-26T13:13:14;22.50;33.00
53653;DHT22;39553;52.954;5.932;2023-06-26T13:15:40;22.20;33.70
53653;DHT22;39553;52.954;5.932;2023-06-26T13:18:06;22.10;33.80
53653;DHT22;39553;52.954;5.932;2023-06-26T13:20:32;22.00;33.60
53653;DHT22;39553;52.954;5.932;2023-06-26T13:22:57;22.10;32.20
53653;DHT22;39553;52.954;5.932;2023-06-26T13:25:23;22.00;33.30
53653;DHT22;39553;52.954;5.932;2023-06-26T13:27:49;22.00;34.50
53653;DHT22;39553;52.954;5.932;2023-06-26T13:30:17;22.00;32.50
53653;DHT22;39553;52.954;5.932;2023-06-26T13:32:43;22.00;31.40
53653;DHT22;39553;52.954;5.932;2023-06-26T13:35:09;21.90;33.10
53653;DHT22;39553;52.954;5.932;2023-06-26T13:37:35;22.00;35.00
53653;DHT22;39553;52.954;5.932;2023-06-26T13:40:02;22.10;36.30
53653;DHT22;39553;52.954;5.932;2023-06-26T13:42:29;22.20;36.40
53653;DHT22;39553;52.954;5.932;2023-06-26T13:44:55;22.20;34.20
53653;DHT22;39553;52.954;5.932;2023-06-26T13:47:21;22.20;33.00
53653;DHT22;39553;52.954;5.932;2023-06-26T13:49:47;22.00;32.10
53653;DHT22;39553;52.954;5.932;2023-06-26T13:52:13;21.90;32.90
53653;DHT22;39553;52.954;5.932;2023-06-26T13:54:39;21.90;33.10
53653;DHT22;39553;52.954;5.932;2023-06-26T13:57:06;21.90;31.70
53653;DHT22;39553;52.954;5.932;2023-06-26T13:59:32;21.90;34.20
53653;DHT22;39553;52.954;5.932;2023-06-26T14:01:58;21.90;34.40
53653;DHT22;39553;52.954;5.932;2023-06-26T14:04:25;21.90;33.80
53653;DHT22;39553;52.954;5.932;2023-06-26T14:06:51;22.10;34.10
53653;DHT22;39553;52.954;5.932;2023-06-26T14:09:16;22.00;34.20
53653;DHT22;39553;52.954;5.932;2023-06-26T14:11:43;21.80;33.80
53653;DHT22;39553;52.954;5.932;2023-06-26T14:14:10;21.60;36.20
53653;DHT22;39553;52.954;5.932;2023-06-26T14:16:36;21.50;35.10
53653;DHT22;39553;52.954;5.932;2023-06-26T14:19:02;21.70;33.10
53653;DHT22;39553;52.954;5.932;2023-06-26T14:21:28;21.60;33.10
53653;DHT22;39553;52.954;5.932;2023-06-26T14:23:55;21.60;32.70
53653;DHT22;39553;52.954;5.932;2023-06-26T14:26:21;21.50;33.50
53653;DHT22;39553;52.954;5.932;2023-06-26T14:28:46;21.50;33.90
53653;DHT22;39553;52.954;5.932;2023-06-26T14:31:15;21.50;34.00
53653;DHT22;39553;52.954;5.932;2023-06-26T14:33:41;21.70;33.40
53653;DHT22;39553;52.954;5.932;2023-06-26T14:36:07;21.60;33.50
53653;DHT22;39553;52.954;5.932;2023-06-26T14:38:32;21.60;35.00
53653;DHT22;39553;52.954;5.932;2023-06-26T14:40:58;21.60;34.30
53653;DHT22;39553;52.954;5.932;2023-06-26T14:43:24;21.80;32.80
53653;DHT22;39553;52.954;5.932;2023-06-26T14:45:50;21.70;34.10
53653;DHT22;39553;52.954;5.932;2023-06-26T14:48:15;21.90;35.90
53653;DHT22;39553;52.954;5.932;2023-06-26T14:50:41;21.90;35.10
53653;DHT22;39553;52.954;5.932;2023-06-26T14:53:07;22.00;35.10
53653;DHT22;39553;52.954;5.932;2023-06-26T14:55:33;22.10;32.40
53653;DHT22;39553;52.954;5.932;2023-06-26T14:57:58;22.00;30.70
53653;DHT22;39553;52.954;5.932;2023-06-26T15:00:24;21.80;30.80
53653;DHT22;39553;52.954;5.932;2023-06-26T15:02:51;21.80;31.70
53653;DHT22;39553;52.954;5.932;2023-06-26T15:05:22;21.90;31.80
53653;DHT22;39553;52.954;5.932;2023-06-26T15:07:48;22.00;31.40
53653;DHT22;39553;52.954;5.932;2023-06-26T15:10:13;22.00;31.10
53653;DHT22;39553;52.954;5.932;2023-06-26T15:12:39;21.80;30.70
53653;DHT22;39553;52.954;5.932;2023-06-26T15:15:05;21.90;30.60
53653;DHT22;39553;52.954;5.932;2023-06-26T15:17:33;21.90;29.10
53653;DHT22;39553;52.954;5.932;2023-06-26T15:19:59;21.70;29.20
53653;DHT22;39553;52.954;5.932;2023-06-26T15:22:26;21.60;30.00
53653;DHT22;39553;52.954;5.932;2023-06-26T15:24:52;21.70;30.50
53653;DHT22;39553;52.954;5.932;2023-06-26T15:27:18;21.90;29.40
53653;DHT22;39553;52.954;5.932;2023-06-26T15:29:44;21.80;28.40
53653;DHT22;39553;52.954;5.932;2023-06-26T15:32:10;21.70;26.90
53653;DHT22;39553;52.954;5.932;2023-06-26T15:34:35;21.50;27.90
53653;DHT22;39553;52.954;5.932;2023-06-26T15:37:01;21.40;27.60
53653;DHT22;39553;52.954;5.932;2023-06-26T15:39:27;21.40;28.50
53653;DHT22;39553;52.954;5.932;2023-06-26T15:41:53;21.40;26.40
53653;DHT22;39553;52.954;5.932;2023-06-26T15:44:19;21.30;26.20
53653;DHT22;39553;52.954;5.932;2023-06-26T15:46:45;21.10;26.90